LIMJ/GOA METAR and TAF weather

Enter ICAO airport designator
Station Type Date Time Source
LIMJ METAR 2020/08/15 09:50 UTC NOAA

LIMJ 150950Z 14006KT 9999 FEW023 26/23 Q1012


Station Type Date Time Source
LIMJ Decoded METAR 2020/08/15 09:50 UTC NOAA

Genova / Sestri, Italy (LIMJ) 44-25N 008-51E 3M
Aug 15, 2020 - 05:50 AM EDT / 2020.08.15 0950 UTC
Wind: from the SE (140 degrees) at 7 MPH (6 KT):0
Visibility: greater than 7 mile(s):0
Sky conditions: mostly clear
Temperature: 78 F (26 C)
Dew Point: 73 F (23 C)
Relative Humidity: 83%
Pressure (altimeter): 29.88 in. Hg (1012 hPa)
ob: LIMJ 150950Z 14006KT 9999 FEW023 26/23 Q1012
cycle: 10

Station Type Date Time Source
LIMJ TAF 2020/08/15 06:21 UTC NOAA

TAF LIMJ 150500Z 1506/1606 VRB05KT 9999 SCT040
BECMG 1509/1511 17010KT
BECMG 1516/1518 VRB05KT

Example: see airport list